Time;durP1;ratioP1;P1;durP2;ratioP2;P2;SDS_P1;SDS_P2;PMS_P1;PMS_P2;Temp;Humidity;BMP_temperature;BMP_pressure;BME280_temperature;BME280_humidity;BME280_pressure;Samples;Min_cycle;Max_cycle;Signal;HPM_P1;HPM_P2
2022/07/02 00:01:26;;;;;;;1.60;1.30;;;;;;;14.53;59.52;99522.66;2620066;47;20064;-65
2022/07/02 00:04:00;;;;;;;4.20;1.20;;;;;;;14.54;59.39;99518.16;2622184;54;20041;-66
2022/07/02 00:06:33;;;;;;;1.42;1.10;;;;;;;14.51;59.61;99519.34;2622870;54;20045;-65
2022/07/02 00:09:03;;;;;;;1.10;1.00;;;;;;;14.44;59.74;99515.81;2622115;39;20437;-66
2022/07/02 00:11:34;;;;;;;2.03;1.25;;;;;;;14.39;59.47;99512.94;2621881;54;20118;-66
2022/07/02 00:14:07;;;;;;;3.65;1.10;;;;;;;14.33;60.03;99517.22;2621110;47;20027;-66
2022/07/02 00:16:37;;;;;;;2.92;1.35;;;;;;;14.29;59.91;99513.31;2620795;47;20030;-67
2022/07/02 00:19:07;;;;;;;1.10;1.00;;;;;;;14.29;59.98;99517.84;2620889;47;20585;-67
2022/07/02 00:21:39;;;;;;;3.38;1.70;;;;;;;14.28;60.05;99514.31;2623613;54;20038;-65
2022/07/02 00:24:09;;;;;;;2.30;1.63;;;;;;;14.26;60.21;99519.03;2624836;54;20035;-66
2022/07/02 00:26:41;;;;;;;1.98;1.38;;;;;;;14.34;60.34;99521.53;2621226;47;20038;-65
2022/07/02 00:29:22;;;;;;;1.52;1.40;;;;;;;14.35;60.51;99522.34;2621722;47;20031;-67
2022/07/02 00:31:52;;;;;;;2.08;1.10;;;;;;;14.29;60.12;99515.16;2621572;54;20035;-66
2022/07/02 00:34:24;;;;;;;5.45;1.38;;;;;;;14.27;59.72;99515.34;2621397;47;20026;-67
2022/07/02 00:36:54;;;;;;;3.22;1.35;;;;;;;14.19;60.51;99512.88;2621847;54;20067;-66
2022/07/02 00:39:24;;;;;;;2.03;1.35;;;;;;;14.12;60.08;99519.97;2621052;54;20052;-66
2022/07/02 00:41:55;;;;;;;1.73;1.30;;;;;;;14.06;60.29;99518.94;2621703;54;20031;-66
2022/07/02 00:44:28;;;;;;;1.77;1.20;;;;;;;13.98;60.97;99520.97;2621201;54;20694;-67
2022/07/02 00:47:01;;;;;;;2.85;1.85;;;;;;;13.99;60.93;99518.09;2621301;47;20026;-66
2022/07/02 00:49:32;;;;;;;1.65;1.50;;;;;;;13.99;61.08;99530.56;2621936;39;20429;-67
2022/07/02 00:52:02;;;;;;;2.13;1.35;;;;;;;13.88;61.50;99526.66;2622026;54;20036;-66
2022/07/02 00:54:32;;;;;;;1.77;1.33;;;;;;;13.72;61.84;99527.78;2622313;54;20034;-66
2022/07/02 00:57:01;;;;;;;6.55;1.80;;;;;;;13.56;62.28;99525.41;2623323;54;20042;-66
2022/07/02 00:59:35;;;;;;;6.57;1.77;;;;;;;13.53;62.61;99517.84;2623317;39;20422;-66
2022/07/02 01:02:05;;;;;;;2.25;1.63;;;;;;;13.48;62.54;99515.75;2623415;54;20547;-65
2022/07/02 01:04:36;;;;;;;2.78;1.45;;;;;;;13.49;62.37;99519.22;2623406;54;20027;-66
2022/07/02 01:07:09;;;;;;;3.83;1.63;;;;;;;13.50;62.59;99520.88;2622973;54;20078;-66
2022/07/02 01:12:26;;;;;;;2.08;1.67;;;;;;;13.41;62.76;99522.84;2622339;54;20030;-66
2022/07/02 01:14:59;;;;;;;2.45;1.30;;;;;;;13.41;63.02;99517.53;2626297;39;20424;-66
2022/07/02 01:17:29;;;;;;;2.67;1.20;;;;;;;13.40;63.03;99518.56;2624806;47;20029;-66
2022/07/02 01:19:59;;;;;;;2.55;1.10;;;;;;;13.45;63.10;99512.66;2624728;54;20030;-66
2022/07/02 01:22:35;;;;;;;2.95;1.30;;;;;;;13.51;62.95;99509.22;2624504;54;20592;-66
2022/07/02 01:25:06;;;;;;;3.92;1.55;;;;;;;13.50;62.63;99511.06;2622945;54;20034;-66
2022/07/02 01:27:36;;;;;;;1.50;1.20;;;;;;;13.49;62.75;99511.25;2621291;47;20548;-66
2022/07/02 01:30:07;;;;;;;2.83;1.30;;;;;;;13.50;62.37;99513.72;2621154;54;20118;-65
2022/07/02 01:32:37;;;;;;;1.85;1.40;;;;;;;13.44;62.45;99519.81;2621279;54;20030;-66
2022/07/02 01:35:09;;;;;;;2.33;1.30;;;;;;;13.35;63.31;99513.03;2620687;47;20034;-66
2022/07/02 01:37:42;;;;;;;2.60;1.55;;;;;;;13.31;63.13;99525.03;2622056;54;20042;-64
2022/07/02 01:40:12;;;;;;;1.48;1.10;;;;;;;13.20;63.30;99530.84;2622299;54;20041;-65
2022/07/02 01:42:42;;;;;;;1.92;1.50;;;;;;;13.07;63.70;99529.72;2622184;54;20026;-65
2022/07/02 01:45:12;;;;;;;1.90;1.50;;;;;;;12.93;64.34;99527.13;2623648;39;20433;-65
2022/07/02 01:47:42;;;;;;;2.72;1.30;;;;;;;12.93;64.61;99535.88;2623494;54;20037;-65
2022/07/02 01:50:12;;;;;;;2.22;1.40;;;;;;;12.98;64.53;99538.81;2623145;47;20039;-65
2022/07/02 01:52:44;;;;;;;1.98;1.30;;;;;;;13.02;64.48;99537.44;2622992;54;20569;-65
2022/07/02 01:55:14;;;;;;;2.08;1.38;;;;;;;12.95;64.47;99533.06;2622607;54;20029;-65
2022/07/02 01:57:43;;;;;;;3.10;1.77;;;;;;;12.85;64.48;99533.38;2622429;54;20038;-65
2022/07/02 02:00:15;;;;;;;2.08;1.40;;;;;;;12.84;65.04;99531.72;2622936;54;20100;-66
2022/07/02 02:02:44;;;;;;;1.33;1.23;;;;;;;12.82;65.03;99523.97;2622991;54;20034;-65
2022/07/02 02:05:14;;;;;;;1.98;1.35;;;;;;;12.92;64.97;99522.81;2622333;54;20029;-65
2022/07/02 02:07:46;;;;;;;2.42;1.63;;;;;;;12.89;64.90;99526.66;2622847;54;20035;-65
2022/07/02 02:10:16;;;;;;;1.52;1.40;;;;;;;12.84;64.52;99523.75;2623319;54;20033;-65
2022/07/02 02:12:45;;;;;;;1.30;1.20;;;;;;;12.76;65.05;99519.41;2622782;54;20034;-64
2022/07/02 02:15:15;;;;;;;2.13;1.35;;;;;;;12.73;65.17;99522.44;2623621;54;20019;-65
2022/07/02 02:17:45;;;;;;;2.47;1.50;;;;;;;12.78;65.30;99520.06;2623447;47;20535;-65
2022/07/02 02:20:14;;;;;;;2.53;1.40;;;;;;;12.78;64.46;99517.41;2623470;54;20074;-65
2022/07/02 02:22:47;;;;;;;1.38;1.05;;;;;;;12.79;64.55;99518.22;2623653;54;20035;-66
2022/07/02 02:25:16;;;;;;;1.60;1.40;;;;;;;12.83;64.58;99519.47;2623165;54;20035;-65
2022/07/02 02:27:46;;;;;;;2.90;1.48;;;;;;;12.84;64.40;99515.81;2624132;54;20043;-65
2022/07/02 02:30:16;;;;;;;3.63;2.20;;;;;;;12.76;64.87;99521.25;2623088;47;20029;-65
2022/07/02 02:32:46;;;;;;;3.55;1.77;;;;;;;12.70;64.95;99522.00;2622895;54;20038;-65
2022/07/02 02:35:15;;;;;;;5.30;1.30;;;;;;;12.74;65.06;99523.28;2623201;47;20034;-65
2022/07/02 02:37:48;;;;;;;3.53;1.38;;;;;;;12.79;64.89;99524.34;2623616;54;20027;-67
2022/07/02 02:40:17;;;;;;;1.20;1.10;;;;;;;12.81;64.37;99522.31;2622290;54;20039;-65
2022/07/02 02:42:47;;;;;;;1.45;1.20;;;;;;;12.72;64.51;99518.13;2622274;54;20057;-65
2022/07/02 02:45:17;;;;;;;5.20;1.23;;;;;;;12.68;64.33;99526.66;2623281;54;20038;-65
2022/07/02 02:47:46;;;;;;;3.50;1.30;;;;;;;12.57;64.96;99520.88;2623676;39;20684;-65
2022/07/02 02:50:16;;;;;;;3.63;1.52;;;;;;;12.50;64.77;99527.91;2623311;47;20019;-65
2022/07/02 02:52:48;;;;;;;3.47;1.65;;;;;;;12.45;65.21;99529.47;2623701;54;20041;-65
2022/07/02 02:55:18;;;;;;;4.22;1.60;;;;;;;12.45;65.41;99529.47;2623712;54;20034;-65
2022/07/02 02:57:48;;;;;;;4.03;1.40;;;;;;;12.45;65.44;99532.13;2623976;54;20030;-65
2022/07/02 03:00:18;;;;;;;3.03;1.42;;;;;;;12.47;65.11;99533.59;2623818;54;20030;-65
2022/07/02 03:02:47;;;;;;;1.80;1.27;;;;;;;12.43;65.21;99531.50;2623468;39;20492;-65
2022/07/02 03:05:17;;;;;;;2.25;1.40;;;;;;;12.33;65.64;99532.63;2624258;39;20808;-65
2022/07/02 03:07:49;;;;;;;5.28;1.40;;;;;;;12.29;65.85;99544.59;2623960;54;20057;-65
2022/07/02 03:10:19;;;;;;;3.15;1.30;;;;;;;12.22;65.94;99542.88;2624172;39;20416;-64
2022/07/02 03:12:48;;;;;;;2.25;1.55;;;;;;;12.23;66.16;99539.22;2624094;47;20030;-65
2022/07/02 03:15:18;;;;;;;2.95;1.42;;;;;;;12.21;65.61;99542.06;2625253;39;20444;-64
2022/07/02 03:17:48;;;;;;;2.97;1.20;;;;;;;12.19;65.59;99541.41;2624562;54;20030;-64
2022/07/02 03:20:17;;;;;;;3.45;1.45;;;;;;;12.23;66.07;99544.50;2624663;54;20022;-65
2022/07/02 03:22:50;;;;;;;4.30;1.83;;;;;;;12.26;66.08;99539.66;2624172;46;20027;-65
2022/07/02 03:25:19;;;;;;;3.50;1.50;;;;;;;12.31;65.81;99549.72;2624422;54;20054;-65
2022/07/02 03:27:50;;;;;;;5.35;1.80;;;;;;;12.32;65.58;99549.50;2624585;54;20026;-64
2022/07/02 03:30:20;;;;;;;3.30;1.60;;;;;;;12.32;65.94;99548.69;2624578;47;20038;-64
2022/07/02 03:32:50;;;;;;;3.38;1.58;;;;;;;12.35;65.91;99558.94;2624282;54;20069;-65
2022/07/02 03:35:19;;;;;;;2.40;1.60;;;;;;;12.34;65.88;99555.47;2623732;54;20030;-65
2022/07/02 03:37:52;;;;;;;1.90;1.58;;;;;;;12.29;66.23;99559.69;2623884;54;20042;-64
2022/07/02 03:40:21;;;;;;;2.40;1.52;;;;;;;12.27;66.25;99551.91;2623134;54;20022;-65
2022/07/02 03:42:51;;;;;;;3.10;1.88;;;;;;;12.24;66.49;99564.72;2623708;39;20507;-65
2022/07/02 03:45:21;;;;;;;2.28;1.58;;;;;;;12.28;66.48;99561.50;2622335;54;20133;-64
2022/07/02 03:47:50;;;;;;;1.50;1.35;;;;;;;12.27;66.00;99559.88;2623105;54;20034;-65
2022/07/02 03:50:20;;;;;;;2.72;1.42;;;;;;;12.12;66.41;99565.19;2624434;54;20137;-65
2022/07/02 03:52:52;;;;;;;3.47;1.75;;;;;;;12.19;66.52;99567.09;2623962;54;20026;-65
2022/07/02 03:55:26;;;;;;;1.42;1.30;;;;;;;12.22;66.60;99561.44;2624483;54;20031;-65
2022/07/02 03:57:55;;;;;;;4.25;1.42;;;;;;;12.37;66.47;99567.53;2624601;54;20046;-65
2022/07/02 04:03:27;;;;;;;1.92;1.70;;;;;;;12.44;66.25;99562.31;2613395;54;20042;-65
2022/07/02 04:05:57;;;;;;;3.03;1.90;;;;;;;12.39;65.66;99561.03;2619265;54;20034;-65
2022/07/02 04:08:29;;;;;;;1.88;1.73;;;;;;;12.34;66.52;99563.44;2619411;54;20034;-66
2022/07/02 04:10:59;;;;;;;1.55;1.40;;;;;;;12.40;66.48;99561.84;2618828;47;20034;-66
2022/07/02 04:16:42;;;;;;;4.22;1.73;;;;;;;12.12;66.36;99553.75;2619470;46;20023;-72
2022/07/02 04:19:12;;;;;;;3.85;1.98;;;;;;;12.08;67.09;99550.66;2618858;54;20046;-70
2022/07/02 04:21:43;;;;;;;4.75;2.20;;;;;;;12.18;66.43;99552.22;2618343;47;20207;-73
2022/07/02 04:24:16;;;;;;;4.07;1.80;;;;;;;12.27;66.72;99553.75;2618549;54;20060;-70
2022/07/02 04:26:45;;;;;;;3.20;1.75;;;;;;;12.30;66.92;99554.19;2618876;54;20042;-71
2022/07/02 04:29:15;;;;;;;3.45;1.90;;;;;;;12.42;66.24;99546.59;2618873;54;20894;-71
2022/07/02 04:31:45;;;;;;;5.35;1.65;;;;;;;12.43;65.95;99552.72;2619192;54;20027;-74
2022/07/02 04:34:14;;;;;;;3.97;1.83;;;;;;;12.44;65.94;99554.34;2625857;39;20434;-69
2022/07/02 04:36:44;;;;;;;3.05;1.90;;;;;;;12.58;66.06;99545.56;2625220;54;20042;-68
2022/07/02 04:39:17;;;;;;;2.45;1.70;;;;;;;12.71;65.85;99551.00;2622775;54;20049;-68
2022/07/02 04:41:46;;;;;;;2.58;1.70;;;;;;;12.76;64.92;99551.25;2625797;54;20045;-71
2022/07/02 04:44:16;;;;;;;3.58;1.67;;;;;;;12.79;65.37;99556.19;2626549;54;20035;-71
2022/07/02 04:46:46;;;;;;;6.97;2.15;;;;;;;12.85;64.48;99558.06;2626295;54;20030;-71
2022/07/02 04:49:15;;;;;;;5.13;1.70;;;;;;;12.83;64.28;99553.97;2625505;54;20030;-71
2022/07/02 04:51:45;;;;;;;5.55;1.90;;;;;;;12.88;64.69;99549.72;2626784;54;20082;-70
2022/07/02 04:54:17;;;;;;;1.98;1.63;;;;;;;13.02;64.64;99553.34;2625672;54;20093;-71
2022/07/02 04:56:48;;;;;;;9.25;1.60;;;;;;;13.17;64.22;99550.59;2625300;47;20029;-71
2022/07/02 04:59:18;;;;;;;5.20;2.40;;;;;;;13.29;63.14;99550.94;2625793;54;20027;-70
2022/07/02 05:01:48;;;;;;;9.73;6.90;;;;;;;13.31;63.32;99551.59;2625111;47;20023;-71
2022/07/02 05:04:18;;;;;;;9.25;6.10;;;;;;;13.32;62.93;99550.56;2620140;47;20019;-69
2022/07/02 05:06:48;;;;;;;6.85;2.50;;;;;;;13.34;62.93;99546.69;2619230;54;20069;-71
2022/07/02 05:09:23;;;;;;;3.35;1.70;;;;;;;13.45;63.15;99544.53;2618547;54;20034;-71
2022/07/02 05:11:52;;;;;;;5.93;1.83;;;;;;;13.61;62.79;99544.25;2618559;54;20069;-71
2022/07/02 05:14:22;;;;;;;3.03;1.90;;;;;;;13.72;62.23;99546.38;2618849;54;20555;-69
2022/07/02 05:16:52;;;;;;;2.95;1.60;;;;;;;13.71;61.95;99550.03;2618805;54;20027;-69
2022/07/02 05:19:22;;;;;;;3.90;1.95;;;;;;;13.73;62.27;99542.69;2617771;54;20026;-70
2022/07/02 05:21:51;;;;;;;2.80;1.83;;;;;;;13.82;61.73;99543.34;2617722;47;20565;-68
2022/07/02 05:24:23;;;;;;;2.13;1.70;;;;;;;13.91;61.72;99549.34;2617446;47;20039;-69
2022/07/02 05:26:53;;;;;;;4.18;3.28;;;;;;;14.00;61.61;99540.16;2618674;39;20128;-68
2022/07/02 05:29:23;;;;;;;9.75;5.63;;;;;;;14.11;60.98;99547.59;2618564;39;20443;-69
2022/07/02 05:31:53;;;;;;;4.20;2.03;;;;;;;14.16;61.63;99544.34;2617930;54;20042;-68
2022/07/02 05:34:22;;;;;;;4.57;1.95;;;;;;;14.25;60.88;99546.66;2617770;47;20121;-69
2022/07/02 05:36:52;;;;;;;3.97;1.80;;;;;;;14.29;60.90;99539.94;2618132;54;20562;-70
2022/07/02 05:39:24;;;;;;;2.05;1.50;;;;;;;14.26;60.07;99542.16;2618056;54;20041;-70
2022/07/02 05:41:55;;;;;;;2.03;1.40;;;;;;;14.31;60.24;99545.84;2618083;54;20045;-69
2022/07/02 05:44:25;;;;;;;3.28;1.42;;;;;;;14.40;59.84;99548.34;2617418;47;20143;-71
2022/07/02 05:46:54;;;;;;;3.13;1.58;;;;;;;14.46;60.00;99551.03;2618066;54;20166;-69
2022/07/02 05:49:24;;;;;;;3.38;1.42;;;;;;;14.58;59.73;99543.31;2617958;54;20039;-71
2022/07/02 05:51:54;;;;;;;3.90;1.70;;;;;;;14.71;59.59;99555.84;2618130;54;20055;-68
2022/07/02 05:54:26;;;;;;;2.05;1.55;;;;;;;14.78;58.87;99554.84;2617927;54;20163;-70
2022/07/02 05:56:55;;;;;;;1.73;1.27;;;;;;;14.87;59.25;99550.16;2617614;47;20031;-70
2022/07/02 05:59:25;;;;;;;1.77;1.60;;;;;;;15.07;58.78;99547.53;2618559;39;20422;-69
2022/07/02 06:01:55;;;;;;;2.75;1.42;;;;;;;15.23;58.25;99554.28;2618021;54;20034;-69
2022/07/02 06:04:24;;;;;;;3.20;1.40;;;;;;;15.25;58.12;99555.72;2617835;54;20034;-70
2022/07/02 06:09:39;;;;;;;8.63;2.33;;;;;;;15.50;57.13;99555.91;2618367;54;20042;-72
2022/07/02 06:12:10;;;;;;;6.95;3.08;;;;;;;15.56;57.02;99551.63;2617977;54;20038;-71
2022/07/02 06:14:40;;;;;;;3.92;1.40;;;;;;;15.62;57.11;99553.44;2618332;54;20031;-69
2022/07/02 06:17:10;;;;;;;4.60;1.35;;;;;;;15.66;57.05;99552.03;2618080;54;20046;-70
2022/07/02 06:19:42;;;;;;;2.15;1.10;;;;;;;15.76;56.70;99554.28;2618347;54;20557;-69
2022/07/02 06:22:12;;;;;;;2.47;1.50;;;;;;;15.80;56.37;99552.84;2618039;54;20529;-72
2022/07/02 06:24:45;;;;;;;2.35;1.30;;;;;;;15.84;56.64;99546.88;2618536;54;20026;-69
2022/07/02 06:27:18;;;;;;;1.03;0.93;;;;;;;15.99;56.40;99546.63;2622314;47;20045;-70
2022/07/02 06:29:48;;;;;;;3.15;1.30;;;;;;;16.09;56.07;99551.53;2623285;47;20023;-70
2022/07/02 06:32:19;;;;;;;3.33;1.63;;;;;;;16.21;55.22;99541.84;2624160;39;20635;-70
2022/07/02 06:34:48;;;;;;;2.05;1.38;;;;;;;16.34;55.44;99546.31;2623421;47;20019;-71
2022/07/02 06:37:18;;;;;;;14.90;13.27;;;;;;;16.57;54.88;99548.44;2625043;54;20034;-70
2022/07/02 06:39:50;;;;;;;2.22;1.27;;;;;;;16.78;54.17;99544.69;2622962;47;20041;-71
2022/07/02 06:42:23;;;;;;;3.38;1.35;;;;;;;16.79;54.39;99541.81;2622240;54;20031;-71
2022/07/02 06:44:57;;;;;;;1.85;1.10;;;;;;;16.96;54.30;99546.63;2622366;54;20549;-70
2022/07/02 06:47:28;;;;;;;2.00;1.55;;;;;;;17.21;53.51;99539.44;2620444;54;20037;-70
2022/07/02 06:50:00;;;;;;;4.10;1.40;;;;;;;17.42;52.54;99538.25;2619830;54;20035;-71
2022/07/02 06:52:30;;;;;;;1.80;0.90;;;;;;;17.50;52.24;99537.16;2619593;54;20038;-70
2022/07/02 06:55:02;;;;;;;2.55;2.28;;;;;;;17.61;51.86;99527.59;2619418;54;20034;-72
2022/07/02 06:57:32;;;;;;;3.70;2.60;;;;;;;17.79;52.36;99533.00;2619171;54;20034;-71
2022/07/02 07:00:01;;;;;;;3.03;2.70;;;;;;;17.98;51.17;99529.28;2618418;54;20038;-69
2022/07/02 07:02:31;;;;;;;3.10;2.17;;;;;;;18.12;51.48;99523.78;2617616;47;20030;-73
2022/07/02 07:05:01;;;;;;;1.65;1.55;;;;;;;18.25;50.93;99523.63;2619654;39;20416;-73
2022/07/02 07:07:31;;;;;;;2.88;1.60;;;;;;;18.33;50.65;99517.97;2619106;47;20027;-73
2022/07/02 07:10:04;;;;;;;4.05;1.73;;;;;;;18.41;50.57;99516.81;2620994;54;20019;-71
2022/07/02 07:12:34;;;;;;;1.80;1.40;;;;;;;18.54;50.12;99517.47;2624107;51;20034;-71
2022/07/02 07:15:06;;;;;;;3.58;1.52;;;;;;;18.66;50.35;99520.22;2619430;54;20035;-72
2022/07/02 07:17:36;;;;;;;2.67;1.60;;;;;;;18.73;49.73;99520.94;2618329;54;20030;-70
2022/07/02 07:20:16;;;;;;;3.20;1.20;;;;;;;18.88;50.16;99515.16;2618755;39;20418;-70
2022/07/02 07:22:47;;;;;;;4.82;1.08;;;;;;;19.05;49.03;99507.28;2618035;54;20034;-70
2022/07/02 07:25:19;;;;;;;2.83;1.50;;;;;;;19.16;49.17;99511.03;2617932;54;20585;-69
2022/07/02 07:27:49;;;;;;;3.30;1.10;;;;;;;19.32;48.60;99506.84;2617309;47;20030;-71
2022/07/02 07:30:19;;;;;;;1.50;1.20;;;;;;;19.40;48.82;99503.84;2617547;39;20441;-70
2022/07/02 07:32:48;;;;;;;3.20;1.00;;;;;;;19.54;47.90;99507.91;2616854;47;20019;-70
2022/07/02 07:35:18;;;;;;;2.90;1.27;;;;;;;19.59;48.74;99508.00;2617170;47;20026;-71
2022/07/02 07:37:57;;;;;;;2.72;1.20;;;;;;;19.77;48.08;99499.88;2617764;54;20030;-72
2022/07/02 07:40:30;;;;;;;1.63;1.20;;;;;;;19.98;47.88;99509.16;2617725;54;20057;-71
2022/07/02 07:43:00;;;;;;;1.60;0.98;;;;;;;20.11;47.51;99499.22;2617936;54;20039;-71
2022/07/02 07:45:29;;;;;;;1.65;0.95;;;;;;;20.31;46.21;99498.81;2617947;54;20041;-71
2022/07/02 07:47:59;;;;;;;1.90;0.88;;;;;;;20.47;45.16;99498.03;2617647;54;20085;-71
2022/07/02 07:50:29;;;;;;;5.25;1.08;;;;;;;20.53;44.66;99499.78;2618557;54;20039;-72
2022/07/02 07:52:59;;;;;;;3.13;0.90;;;;;;;20.59;44.33;99489.97;2618133;54;20550;-70
2022/07/02 07:55:31;;;;;;;1.48;0.98;;;;;;;20.69;44.00;99488.25;2618108;54;20034;-72
2022/07/02 07:58:01;;;;;;;1.73;1.50;;;;;;;20.93;43.87;99478.19;2619119;54;20030;-71
2022/07/02 08:00:31;;;;;;;2.60;1.98;;;;;;;21.06;43.24;99484.28;2618054;54;20030;-69
2022/07/02 08:03:01;;;;;;;1.70;1.00;;;;;;;21.23;42.74;99485.13;2618401;54;20030;-71
2022/07/02 08:05:31;;;;;;;1.58;1.02;;;;;;;21.19;42.56;99490.19;2618568;54;20026;-70
2022/07/02 08:08:01;;;;;;;3.17;1.13;;;;;;;21.24;41.78;99484.88;2621947;54;20031;-70
2022/07/02 08:10:34;;;;;;;1.42;0.63;;;;;;;21.43;41.28;99476.56;2624520;46;20030;-70
2022/07/02 08:13:03;;;;;;;2.78;1.13;;;;;;;21.56;41.07;99476.22;2625248;54;20831;-70
2022/07/02 08:15:33;;;;;;;1.38;0.80;;;;;;;21.66;40.49;99468.28;2623613;47;20118;-71
2022/07/02 08:18:03;;;;;;;1.48;1.02;;;;;;;21.73;40.60;99473.50;2623751;54;20031;-71
2022/07/02 08:20:33;;;;;;;2.85;0.90;;;;;;;21.85;40.53;99470.69;2618915;39;20449;-70
2022/07/02 08:23:02;;;;;;;1.05;0.75;;;;;;;21.93;39.67;99468.38;2617675;54;20034;-69
2022/07/02 08:25:35;;;;;;;0.52;0.50;;;;;;;22.01;39.40;99459.84;2618258;54;20058;-70
2022/07/02 08:28:05;;;;;;;2.33;1.23;;;;;;;21.94;39.29;99466.47;2618793;54;20045;-69
2022/07/02 08:30:35;;;;;;;1.17;0.90;;;;;;;21.99;39.30;99461.16;2618415;54;20038;-70
2022/07/02 08:33:05;;;;;;;1.15;0.90;;;;;;;21.97;39.18;99458.72;2618228;54;20038;-71
2022/07/02 08:35:35;;;;;;;4.82;1.27;;;;;;;22.09;38.54;99461.28;2619297;54;20118;-70
2022/07/02 08:38:05;;;;;;;2.08;0.80;;;;;;;22.22;38.13;99458.22;2619374;54;20030;-70
2022/07/02 08:40:37;;;;;;;1.25;0.80;;;;;;;22.14;39.34;99453.28;2619206;54;20045;-71
2022/07/02 08:43:08;;;;;;;2.45;0.70;;;;;;;22.25;39.09;99457.72;2619120;54;20034;-71
2022/07/02 08:45:39;;;;;;;2.67;0.77;;;;;;;22.30;38.57;99454.28;2618763;54;20034;-69
2022/07/02 08:48:10;;;;;;;3.10;0.90;;;;;;;22.40;38.52;99453.56;2618528;54;20557;-71
2022/07/02 08:50:41;;;;;;;1.17;0.70;;;;;;;22.56;37.49;99443.75;2619069;54;20117;-70
2022/07/02 08:53:11;;;;;;;3.85;2.65;;;;;;;22.61;37.87;99438.41;2618254;47;20030;-69
2022/07/02 08:55:44;;;;;;;1.45;0.80;;;;;;;22.68;37.71;99434.41;2619217;54;20034;-70
2022/07/02 08:58:15;;;;;;;0.83;0.80;;;;;;;22.68;37.63;99428.22;2622592;54;20039;-70
2022/07/02 09:00:45;;;;;;;1.58;0.70;;;;;;;22.68;37.28;99428.22;2623890;47;20045;-71
2022/07/02 09:03:15;;;;;;;1.02;0.65;;;;;;;22.81;36.88;99427.78;2624379;54;20042;-70
2022/07/02 09:05:45;;;;;;;1.15;0.80;;;;;;;22.94;36.63;99421.16;2623250;54;20029;-71
2022/07/02 09:08:25;;;;;;;0.80;0.60;;;;;;;23.07;36.10;99420.75;2621355;54;20030;-71
2022/07/02 09:11:07;;;;;;;3.47;0.90;;;;;;;23.11;36.65;99421.06;2620885;47;20077;-71
2022/07/02 09:13:38;;;;;;;1.85;0.90;;;;;;;23.24;36.78;99413.31;2620492;54;20090;-70
2022/07/02 09:16:08;;;;;;;1.05;0.93;;;;;;;23.35;36.90;99416.88;2621433;54;20045;-70
2022/07/02 09:18:38;;;;;;;7.63;1.02;;;;;;;23.31;36.86;99412.25;2621411;54;20178;-69
2022/07/02 09:21:12;;;;;;;1.00;0.90;;;;;;;23.27;37.14;99408.44;2623707;54;20041;-69
2022/07/02 09:23:48;;;;;;;1.08;0.82;;;;;;;23.30;36.92;99402.53;2623787;54;20046;-69
2022/07/02 09:26:26;;;;;;;2.08;0.93;;;;;;;23.35;37.07;99399.84;2622486;47;20035;-69
2022/07/02 09:28:59;;;;;;;0.80;0.80;;;;;;;23.40;37.26;99391.81;2622467;54;20095;-69
2022/07/02 09:31:28;;;;;;;2.67;0.80;;;;;;;23.47;36.96;99401.31;2620787;54;20038;-69
2022/07/02 09:33:59;;;;;;;2.22;0.80;;;;;;;23.54;36.44;99401.03;2622542;54;20042;-70
2022/07/02 09:36:29;;;;;;;1.23;0.80;;;;;;;23.73;36.00;99406.84;2624283;54;20541;-69
2022/07/02 09:38:58;;;;;;;0.82;0.82;;;;;;;23.83;35.45;99398.75;2621099;47;20565;-70
2022/07/02 09:41:30;;;;;;;2.38;1.20;;;;;;;23.96;35.87;99398.28;2619518;47;20041;-70
2022/07/02 09:44:03;;;;;;;1.50;0.80;;;;;;;23.94;34.87;99408.50;2625171;54;20057;-70
2022/07/02 09:46:33;;;;;;;0.75;0.70;;;;;;;23.86;35.33;99405.53;2625973;54;20038;-71
2022/07/02 09:49:09;;;;;;;1.42;1.08;;;;;;;24.11;35.44;99407.47;2625748;54;20038;-71
2022/07/02 09:51:48;;;;;;;1.52;0.90;;;;;;;24.39;34.87;99392.69;2624023;54;20038;-70
2022/07/02 09:54:22;;;;;;;0.75;0.70;;;;;;;24.45;33.98;99400.56;2620908;54;20046;-70
2022/07/02 09:56:58;;;;;;;0.88;0.70;;;;;;;24.45;33.93;99386.22;2618159;54;20030;-70
2022/07/02 09:59:28;;;;;;;1.38;0.75;;;;;;;24.43;34.27;99385.69;2618185;54;20022;-69
2022/07/02 10:01:58;;;;;;;0.75;0.75;;;;;;;24.61;33.48;99387.84;2618087;54;20027;-68
2022/07/02 10:04:31;;;;;;;1.85;0.80;;;;;;;24.68;32.43;99401.09;2617942;54;20022;-68
2022/07/02 10:07:01;;;;;;;1.73;0.70;;;;;;;24.62;33.73;99394.06;2618256;54;20030;-69
2022/07/02 10:09:32;;;;;;;0.85;0.70;;;;;;;24.79;33.90;99404.63;2618779;54;20038;-70
2022/07/02 10:12:06;;;;;;;0.60;0.60;;;;;;;24.81;31.99;99388.91;2617618;47;20034;-69
2022/07/02 10:14:39;;;;;;;1.15;0.65;;;;;;;24.70;31.65;99386.22;2618392;54;20546;-69
2022/07/02 10:17:11;;;;;;;1.77;1.00;;;;;;;24.79;31.91;99391.91;2618133;47;20034;-66
2022/07/02 10:19:41;;;;;;;0.65;0.60;;;;;;;24.78;31.81;99390.28;2618858;54;20036;-67
2022/07/02 10:22:12;;;;;;;1.00;0.90;;;;;;;24.81;32.95;99388.91;2619776;39;20421;-66
2022/07/02 10:24:43;;;;;;;1.15;0.70;;;;;;;24.97;33.38;99390.53;2619258;54;20038;-66
2022/07/02 10:27:17;;;;;;;1.05;0.77;;;;;;;25.21;33.49;99388.06;2619133;54;20077;-66
2022/07/02 10:29:47;;;;;;;0.75;0.75;;;;;;;25.39;32.28;99381.25;2619245;54;20036;-67
2022/07/02 10:32:29;;;;;;;0.80;0.63;;;;;;;25.40;32.70;99389.09;2618691;54;20031;-66
2022/07/02 10:35:08;;;;;;;0.90;0.60;;;;;;;25.42;33.25;99378.00;2618728;54;20030;-67
2022/07/02 10:37:40;;;;;;;1.67;0.70;;;;;;;25.47;32.89;99371.75;2618371;54;20038;-66
2022/07/02 10:40:11;;;;;;;2.13;0.80;;;;;;;25.41;33.39;99368.25;2619210;54;20560;-66
2022/07/02 10:42:45;;;;;;;1.17;0.65;;;;;;;25.53;33.42;99374.16;2619641;39;20402;-66
2022/07/02 10:45:17;;;;;;;1.80;0.75;;;;;;;25.80;32.82;99375.69;2619101;54;20030;-66
2022/07/02 10:47:58;;;;;;;0.80;0.63;;;;;;;25.94;32.52;99365.88;2618473;54;20035;-65
2022/07/02 10:50:40;;;;;;;0.77;0.60;;;;;;;26.00;32.00;99364.75;2618787;54;20565;-66
2022/07/02 10:53:11;;;;;;;0.98;0.50;;;;;;;25.95;31.96;99362.06;2619244;54;20037;-67
2022/07/02 10:55:42;;;;;;;0.82;0.70;;;;;;;25.83;32.25;99359.69;2618790;54;20561;-67
2022/07/02 10:58:21;;;;;;;1.63;0.90;;;;;;;25.89;32.57;99364.00;2618968;54;20026;-66
2022/07/02 11:00:51;;;;;;;1.67;0.80;;;;;;;25.97;32.09;99357.19;2618955;54;20042;-66
2022/07/02 11:03:24;;;;;;;1.10;0.80;;;;;;;25.74;32.15;99357.84;2618624;54;20558;-66
2022/07/02 11:06:02;;;;;;;2.08;0.98;;;;;;;25.55;32.39;99354.94;2618999;54;20053;-66
2022/07/02 11:08:49;;;;;;;0.50;0.50;;;;;;;25.39;32.75;99356.88;2618866;54;20035;-67
2022/07/02 11:11:22;;;;;;;1.90;0.80;;;;;;;25.19;33.16;99361.31;2618628;54;20044;-67
2022/07/02 11:13:58;;;;;;;0.60;0.60;;;;;;;25.38;33.53;99347.97;2618493;54;20569;-66
2022/07/02 11:16:30;;;;;;;1.05;0.80;;;;;;;25.61;33.09;99356.53;2618694;54;20069;-66
2022/07/02 11:19:00;;;;;;;1.75;0.80;;;;;;;25.68;32.61;99343.53;2618662;54;20114;-66
2022/07/02 11:21:31;;;;;;;0.73;0.60;;;;;;;25.63;32.93;99352.44;2619145;54;20061;-66
2022/07/02 11:24:01;;;;;;;1.00;1.00;;;;;;;25.66;33.18;99349.19;2619138;54;20027;-66
2022/07/02 11:26:31;;;;;;;21.27;17.38;;;;;;;25.89;33.05;99339.63;2620017;47;20023;-67
2022/07/02 11:29:07;;;;;;;3.75;3.33;;;;;;;25.97;32.83;99342.84;2620195;54;20031;-66
2022/07/02 11:31:39;;;;;;;3.60;0.70;;;;;;;25.85;32.60;99335.06;2619990;54;20056;-67
2022/07/02 11:34:13;;;;;;;1.38;0.60;;;;;;;25.51;32.68;99330.31;2621215;39;20478;-66
2022/07/02 11:36:43;;;;;;;0.57;0.57;;;;;;;25.35;32.70;99336.88;2619115;54;20565;-66
2022/07/02 11:39:14;;;;;;;1.10;0.50;;;;;;;25.39;33.23;99329.81;2619613;54;20027;-66
2022/07/02 11:41:44;;;;;;;1.80;0.70;;;;;;;25.70;32.60;99327.78;2619818;54;20054;-65
2022/07/02 11:44:19;;;;;;;1.02;0.80;;;;;;;25.49;32.65;99320.88;2619367;54;20562;-66
2022/07/02 11:46:51;;;;;;;2.58;0.90;;;;;;;25.27;33.41;99322.06;2619627;54;20027;-66
2022/07/02 11:49:22;;;;;;;1.48;0.95;;;;;;;25.30;33.43;99320.66;2619538;54;20031;-65
2022/07/02 11:51:54;;;;;;;1.73;0.95;;;;;;;25.27;33.77;99308.53;2618850;54;20564;-65
2022/07/02 11:54:26;;;;;;;1.03;0.97;;;;;;;25.29;33.74;99316.34;2619352;54;20089;-66
2022/07/02 11:56:56;;;;;;;1.08;0.70;;;;;;;25.49;32.83;99301.94;2620309;54;20045;-64
2022/07/02 11:59:29;;;;;;;0.80;0.80;;;;;;;25.73;32.63;99311.00;2622139;54;20038;-64
2022/07/02 12:02:00;;;;;;;2.35;0.68;;;;;;;25.97;31.95;99310.34;2622762;54;20038;-64
2022/07/02 12:04:33;;;;;;;1.42;0.70;;;;;;;26.16;31.62;99305.84;2622284;39;20086;-67